Time;durP1;ratioP1;P1;durP2;ratioP2;P2;SDS_P1;SDS_P2;PMS_P1;PMS_P2;Temp;Humidity;BMP_temperature;BMP_pressure;BME280_temperature;BME280_humidity;BME280_pressure;Samples;Min_cycle;Max_cycle;Signal;HPM_P1;HPM_P2
2022/09/02 00:01:36;;;;;;;1.55;0.82;;;;;;;;;;4957095;29;20062;-43
2022/09/02 00:04:12;;;;;;;0.63;0.60;;;;;;;;;;4957153;29;20019;-43
2022/09/02 00:06:39;;;;;;;2.53;0.80;;;;;;;;;;4956962;29;20055;-43
2022/09/02 00:09:07;;;;;;;1.00;0.60;;;;;;;;;;4939739;29;20508;-42
2022/09/02 00:11:35;;;;;;;1.17;1.00;;;;;;;;;;4956849;29;20424;-43
2022/09/02 00:14:05;;;;;;;1.52;1.10;;;;;;;;;;4956887;29;20062;-43
2022/09/02 00:16:32;;;;;;;1.75;0.82;;;;;;;;;;4957400;29;20400;-43
2022/09/02 00:18:58;;;;;;;1.05;0.80;;;;;;;;;;4956777;29;20040;-43
2022/09/02 00:21:25;;;;;;;0.50;0.50;;;;;;;;;;4957013;29;20027;-46
2022/09/02 00:23:52;;;;;;;1.42;0.88;;;;;;;;;;4956673;29;20521;-43
2022/09/02 00:26:18;;;;;;;2.53;1.20;;;;;;;;;;4956560;28;20034;-44
2022/09/02 00:28:45;;;;;;;1.10;0.82;;;;;;;;;;4956559;29;20384;-44
2022/09/02 00:31:11;;;;;;;0.80;0.80;;;;;;;;;;4956915;29;20027;-44
2022/09/02 00:33:38;;;;;;;0.75;0.75;;;;;;;;;;4956601;29;20043;-44
2022/09/02 00:36:04;;;;;;;2.08;0.80;;;;;;;;;;4956424;29;20027;-42
2022/09/02 00:38:34;;;;;;;0.60;0.60;;;;;;;;;;4956448;29;20065;-42
2022/09/02 00:41:02;;;;;;;0.50;0.50;;;;;;;;;;4956464;29;20503;-43
2022/09/02 00:43:55;;;;;;;0.88;0.60;;;;;;;;;;4956649;29;20090;-43
2022/09/02 00:46:23;;;;;;;3.15;0.80;;;;;;;;;;4956680;29;20102;-43
2022/09/02 00:48:55;;;;;;;1.00;0.82;;;;;;;;;;4955976;29;20031;-43
2022/09/02 00:51:21;;;;;;;0.80;0.80;;;;;;;;;;4956299;29;20550;-43
2022/09/02 00:53:48;;;;;;;0.70;0.52;;;;;;;;;;4956177;29;20031;-42
2022/09/02 00:56:20;;;;;;;0.80;0.80;;;;;;;;;;4956363;29;20111;-43
2022/09/02 00:58:46;;;;;;;0.95;0.90;;;;;;;;;;4956124;29;20110;-45
2022/09/02 01:01:12;;;;;;;0.73;0.73;;;;;;;;;;4956064;29;20023;-45
2022/09/02 01:03:39;;;;;;;1.73;0.85;;;;;;;;;;4955912;29;20071;-44
2022/09/02 01:06:06;;;;;;;4.65;1.05;;;;;;;;;;4956019;29;20049;-41
2022/09/02 01:08:34;;;;;;;2.13;1.10;;;;;;;;;;4956048;29;20027;-44
2022/09/02 01:11:02;;;;;;;1.52;1.10;;;;;;;;;;4956076;29;20031;-42
2022/09/02 01:13:30;;;;;;;2.30;1.10;;;;;;;;;;4956025;29;20125;-43
2022/09/02 01:16:08;;;;;;;1.73;0.90;;;;;;;;;;4956044;29;20027;-43
2022/09/02 01:18:34;;;;;;;2.28;1.15;;;;;;;;;;4955786;29;20019;-44
2022/09/02 01:21:00;;;;;;;2.50;1.05;;;;;;;;;;4955632;29;20027;-44
2022/09/02 01:23:27;;;;;;;1.92;0.90;;;;;;;;;;4955916;29;20031;-43
2022/09/02 01:25:53;;;;;;;3.00;1.00;;;;;;;;;;4955890;29;20031;-44
2022/09/02 01:28:19;;;;;;;1.17;1.00;;;;;;;;;;4955407;29;20038;-44
2022/09/02 01:30:51;;;;;;;2.17;0.90;;;;;;;;;;4955528;29;20603;-44
2022/09/02 01:33:18;;;;;;;3.05;0.90;;;;;;;;;;4955692;29;20027;-44
2022/09/02 01:35:44;;;;;;;4.82;1.05;;;;;;;;;;4955326;28;20412;-44
2022/09/02 01:38:10;;;;;;;1.63;1.00;;;;;;;;;;4954706;29;20395;-44
2022/09/02 01:40:36;;;;;;;3.00;0.98;;;;;;;;;;4955373;29;20027;-43
2022/09/02 01:43:08;;;;;;;1.55;1.10;;;;;;;;;;4955219;29;20078;-44
2022/09/02 01:45:36;;;;;;;1.83;1.10;;;;;;;;;;4955274;29;20027;-44
2022/09/02 01:48:04;;;;;;;1.95;1.05;;;;;;;;;;4955071;29;20070;-43
2022/09/02 01:50:30;;;;;;;2.13;1.10;;;;;;;;;;4934570;29;20402;-43
2022/09/02 01:52:56;;;;;;;1.15;1.05;;;;;;;;;;4936162;29;20019;-46
2022/09/02 01:55:22;;;;;;;2.03;0.90;;;;;;;;;;4935913;29;20027;-43
2022/09/02 01:57:47;;;;;;;1.40;0.85;;;;;;;;;;4935866;29;20016;-41
2022/09/02 02:00:14;;;;;;;3.72;0.95;;;;;;;;;;4935870;29;20032;-43
2022/09/02 02:02:40;;;;;;;1.90;1.00;;;;;;;;;;4935742;29;20038;-43
2022/09/02 02:05:06;;;;;;;0.75;0.75;;;;;;;;;;4935694;29;20024;-44
2022/09/02 02:07:31;;;;;;;1.02;0.93;;;;;;;;;;4935676;29;20137;-45
2022/09/02 02:09:57;;;;;;;3.83;1.17;;;;;;;;;;4935707;29;20144;-43
2022/09/02 02:12:23;;;;;;;3.97;0.90;;;;;;;;;;4935636;29;20028;-43
2022/09/02 02:14:48;;;;;;;2.45;1.00;;;;;;;;;;4935722;29;20034;-44
2022/09/02 02:17:14;;;;;;;0.80;0.80;;;;;;;;;;4935604;29;20106;-45
2022/09/02 02:19:39;;;;;;;7.38;1.10;;;;;;;;;;4935567;29;20544;-44
2022/09/02 02:22:06;;;;;;;1.58;1.10;;;;;;;;;;4935777;29;20042;-45
2022/09/02 02:24:32;;;;;;;4.40;1.27;;;;;;;;;;4935454;29;20020;-43
2022/09/02 02:26:57;;;;;;;3.00;0.88;;;;;;;;;;4935654;29;20110;-43
2022/09/02 02:29:23;;;;;;;2.80;0.85;;;;;;;;;;4935378;29;20020;-43
2022/09/02 02:31:49;;;;;;;4.53;1.25;;;;;;;;;;4935328;29;20031;-44
2022/09/02 02:34:15;;;;;;;0.98;0.88;;;;;;;;;;4935622;29;20058;-46
2022/09/02 02:36:41;;;;;;;1.40;0.90;;;;;;;;;;4935590;29;20365;-43
2022/09/02 02:39:08;;;;;;;2.00;0.93;;;;;;;;;;4935254;29;20031;-42
2022/09/02 02:41:35;;;;;;;4.22;1.00;;;;;;;;;;4935567;29;20036;-43
2022/09/02 02:44:01;;;;;;;1.50;1.10;;;;;;;;;;4935213;29;20051;-44
2022/09/02 02:46:29;;;;;;;1.05;0.88;;;;;;;;;;4935454;29;20079;-43
2022/09/02 02:48:55;;;;;;;1.13;1.00;;;;;;;;;;4936803;29;20395;-44
2022/09/02 02:51:21;;;;;;;3.15;1.10;;;;;;;;;;4954588;29;20028;-42
2022/09/02 02:53:46;;;;;;;1.95;1.30;;;;;;;;;;4954357;29;20602;-43
2022/09/02 02:56:12;;;;;;;1.23;1.00;;;;;;;;;;4954519;29;20114;-43
2022/09/02 02:58:37;;;;;;;2.13;1.20;;;;;;;;;;4954270;29;20031;-44
2022/09/02 03:01:03;;;;;;;1.98;1.10;;;;;;;;;;4954305;29;20387;-47
2022/09/02 03:03:28;;;;;;;1.88;1.10;;;;;;;;;;4954295;29;20051;-43
2022/09/02 03:05:54;;;;;;;1.95;1.25;;;;;;;;;;4954216;29;20090;-43
2022/09/02 03:08:21;;;;;;;1.67;1.13;;;;;;;;;;4954076;29;20043;-45
2022/09/02 03:10:51;;;;;;;1.45;1.05;;;;;;;;;;4954134;29;20118;-44
2022/09/02 03:13:16;;;;;;;1.45;1.20;;;;;;;;;;4937029;29;20039;-46
2022/09/02 03:15:42;;;;;;;1.10;1.08;;;;;;;;;;4954112;29;20038;-42
2022/09/02 03:18:08;;;;;;;5.40;1.38;;;;;;;;;;4954354;29;20352;-41
2022/09/02 03:20:33;;;;;;;1.08;1.08;;;;;;;;;;4954134;29;20035;-43
2022/09/02 03:22:59;;;;;;;1.55;1.13;;;;;;;;;;4954043;29;20027;-44
2022/09/02 03:25:27;;;;;;;1.10;1.00;;;;;;;;;;4953951;29;20039;-43
2022/09/02 03:27:53;;;;;;;3.25;1.08;;;;;;;;;;4953915;29;20073;-45
2022/09/02 03:30:22;;;;;;;3.53;1.52;;;;;;;;;;4954014;29;20049;-43
2022/09/02 03:32:49;;;;;;;2.38;1.20;;;;;;;;;;4954234;29;20098;-43
2022/09/02 03:35:18;;;;;;;1.75;1.10;;;;;;;;;;4953959;29;20031;-45
2022/09/02 03:37:44;;;;;;;8.35;1.42;;;;;;;;;;4954169;29;20051;-45
2022/09/02 03:40:13;;;;;;;2.60;1.40;;;;;;;;;;4953908;29;20055;-44
2022/09/02 03:42:38;;;;;;;4.63;1.23;;;;;;;;;;4953866;29;20476;-44
2022/09/02 03:45:06;;;;;;;2.78;1.10;;;;;;;;;;4953918;29;20061;-45
2022/09/02 03:47:32;;;;;;;2.03;1.10;;;;;;;;;;4953671;29;20039;-44
2022/09/02 03:49:58;;;;;;;1.70;1.30;;;;;;;;;;4953449;29;20098;-44
2022/09/02 03:52:24;;;;;;;1.77;1.13;;;;;;;;;;4954029;29;20031;-45
2022/09/02 03:54:50;;;;;;;1.50;1.40;;;;;;;;;;4954007;29;20036;-45
2022/09/02 03:57:16;;;;;;;4.38;1.10;;;;;;;;;;4953694;29;20106;-43
2022/09/02 03:59:41;;;;;;;1.60;1.23;;;;;;;;;;4954406;28;20041;-46
2022/09/02 04:02:07;;;;;;;3.28;1.23;;;;;;;;;;4957052;29;20024;-45
2022/09/02 04:04:33;;;;;;;2.50;1.45;;;;;;;;;;4957106;29;20035;-44
2022/09/02 04:06:59;;;;;;;1.73;1.10;;;;;;;;;;4957017;29;20030;-45
2022/09/02 04:09:25;;;;;;;5.75;1.48;;;;;;;;;;4957107;29;20467;-43
2022/09/02 04:11:51;;;;;;;2.08;1.20;;;;;;;;;;4956980;29;20093;-47
2022/09/02 04:14:17;;;;;;;0.98;0.93;;;;;;;;;;4956918;29;20038;-45
2022/09/02 04:16:42;;;;;;;3.55;1.30;;;;;;;;;;4957113;29;20035;-44
2022/09/02 04:19:08;;;;;;;3.67;1.23;;;;;;;;;;4956913;29;20027;-42
2022/09/02 04:21:36;;;;;;;1.40;1.30;;;;;;;;;;4956824;29;20027;-43
2022/09/02 04:24:04;;;;;;;5.07;1.20;;;;;;;;;;4957101;29;20113;-44
2022/09/02 04:26:29;;;;;;;1.83;1.17;;;;;;;;;;4956771;29;20082;-48
2022/09/02 04:28:55;;;;;;;1.92;1.30;;;;;;;;;;4956878;29;20031;-44
2022/09/02 04:31:24;;;;;;;3.03;1.70;;;;;;;;;;4956649;29;20031;-46
2022/09/02 04:33:50;;;;;;;6.45;1.50;;;;;;;;;;4956524;29;20031;-44
2022/09/02 04:36:18;;;;;;;2.85;1.25;;;;;;;;;;4956759;29;20427;-46
2022/09/02 04:38:44;;;;;;;3.83;1.55;;;;;;;;;;4939260;29;20027;-41
2022/09/02 04:41:13;;;;;;;2.63;1.50;;;;;;;;;;4956481;29;20019;-43
2022/09/02 04:43:39;;;;;;;3.88;1.50;;;;;;;;;;4956709;29;20034;-42
2022/09/02 04:46:07;;;;;;;1.70;1.60;;;;;;;;;;4956356;29;20030;-41
2022/09/02 04:48:33;;;;;;;2.60;1.50;;;;;;;;;;4956231;29;20062;-40
2022/09/02 04:51:04;;;;;;;1.92;1.20;;;;;;;;;;4956096;29;20094;-44
2022/09/02 04:53:30;;;;;;;2.55;1.60;;;;;;;;;;4938996;29;20031;-46
2022/09/02 04:55:55;;;;;;;4.40;1.50;;;;;;;;;;4956043;29;20111;-40
2022/09/02 04:58:21;;;;;;;3.85;1.60;;;;;;;;;;4956421;29;20035;-44
2022/09/02 05:00:46;;;;;;;3.70;1.70;;;;;;;;;;4956092;29;20043;-45
2022/09/02 05:03:12;;;;;;;2.70;1.50;;;;;;;;;;4956350;29;20043;-46
2022/09/02 05:05:39;;;;;;;3.40;1.58;;;;;;;;;;4955925;29;20034;-41
2022/09/02 05:08:04;;;;;;;3.75;1.95;;;;;;;;;;4955715;29;20074;-48
2022/09/02 05:10:32;;;;;;;3.08;1.52;;;;;;;;;;4955719;28;20027;-43
2022/09/02 05:12:58;;;;;;;2.65;1.80;;;;;;;;;;4954939;29;20039;-43
2022/09/02 05:15:25;;;;;;;7.38;1.90;;;;;;;;;;4956050;29;20030;-43
2022/09/02 05:17:51;;;;;;;4.55;2.20;;;;;;;;;;4955804;29;20110;-41
2022/09/02 05:20:18;;;;;;;4.63;2.17;;;;;;;;;;4955974;29;20034;-44
2022/09/02 05:22:44;;;;;;;2.25;1.77;;;;;;;;;;4955918;29;20027;-44
2022/09/02 05:25:10;;;;;;;2.78;1.98;;;;;;;;;;4955604;29;20023;-43
2022/09/02 05:27:36;;;;;;;5.35;2.05;;;;;;;;;;4955445;29;20027;-43
2022/09/02 05:30:04;;;;;;;3.13;1.83;;;;;;;;;;4955750;29;20027;-45
2022/09/02 05:32:30;;;;;;;2.90;2.10;;;;;;;;;;4955417;29;20023;-47
2022/09/02 05:34:55;;;;;;;16.30;12.32;;;;;;;;;;4955203;29;20035;-41
2022/09/02 05:37:23;;;;;;;4.10;2.80;;;;;;;;;;4955683;29;20151;-45
2022/09/02 05:39:49;;;;;;;6.38;2.70;;;;;;;;;;4955569;29;20035;-43
2022/09/02 05:42:15;;;;;;;3.83;2.40;;;;;;;;;;4955577;29;20028;-48
2022/09/02 05:44:43;;;;;;;3.15;2.38;;;;;;;;;;4955305;29;20483;-44
2022/09/02 05:47:10;;;;;;;4.78;3.00;;;;;;;;;;4955389;29;20448;-44
2022/09/02 05:49:36;;;;;;;3.80;2.85;;;;;;;;;;4955050;29;20039;-46
2022/09/02 05:52:03;;;;;;;3.50;2.58;;;;;;;;;;4955130;29;20028;-43
2022/09/02 05:54:34;;;;;;;2.72;2.33;;;;;;;;;;4955358;29;20035;-43
2022/09/02 05:57:03;;;;;;;8.23;3.13;;;;;;;;;;4955593;29;20046;-48
2022/09/02 05:59:30;;;;;;;7.97;3.30;;;;;;;;;;4954938;29;20118;-43
2022/09/02 06:01:58;;;;;;;4.47;2.78;;;;;;;;;;4954858;29;20031;-41
2022/09/02 06:04:24;;;;;;;6.43;2.85;;;;;;;;;;4955317;29;20027;-45
2022/09/02 06:06:51;;;;;;;9.75;2.70;;;;;;;;;;4954822;29;20031;-43
2022/09/02 06:09:19;;;;;;;3.88;2.55;;;;;;;;;;4955053;29;20038;-45
2022/09/02 06:11:48;;;;;;;5.78;2.75;;;;;;;;;;4954689;29;20027;-44
2022/09/02 06:14:15;;;;;;;4.18;3.25;;;;;;;;;;4954989;29;20035;-41
2022/09/02 06:16:42;;;;;;;5.20;2.65;;;;;;;;;;4954658;29;20530;-44
2022/09/02 06:19:08;;;;;;;4.82;3.05;;;;;;;;;;4954891;29;20141;-44
2022/09/02 06:21:35;;;;;;;4.40;2.50;;;;;;;;;;4954679;29;20388;-48
2022/09/02 06:24:07;;;;;;;3.00;2.40;;;;;;;;;;4954520;28;20070;-45
2022/09/02 06:26:33;;;;;;;3.83;2.65;;;;;;;;;;4954554;29;20039;-43
2022/09/02 06:28:59;;;;;;;5.95;2.50;;;;;;;;;;4921493;29;20098;-44
2022/09/02 06:31:24;;;;;;;5.78;2.85;;;;;;;;;;4954565;29;20027;-41
2022/09/02 06:33:53;;;;;;;3.10;2.53;;;;;;;;;;4954496;29;20031;-43
2022/09/02 06:36:20;;;;;;;5.53;2.90;;;;;;;;;;4954381;29;20479;-45
2022/09/02 06:38:49;;;;;;;3.67;2.50;;;;;;;;;;4954446;29;20037;-43
2022/09/02 06:41:19;;;;;;;3.92;2.80;;;;;;;;;;4954687;29;20435;-47
2022/09/02 06:43:44;;;;;;;6.78;2.70;;;;;;;;;;4954681;29;20435;-41
2022/09/02 06:46:24;;;;;;;3.75;2.63;;;;;;;;;;4954582;29;20090;-46
2022/09/02 06:48:49;;;;;;;3.65;2.40;;;;;;;;;;4954095;29;20130;-43
2022/09/02 06:51:21;;;;;;;5.88;2.33;;;;;;;;;;4953841;29;20138;-45
2022/09/02 06:53:46;;;;;;;5.57;2.47;;;;;;;;;;4954178;29;20039;-47
2022/09/02 06:56:12;;;;;;;11.05;2.70;;;;;;;;;;4954270;29;20546;-45
2022/09/02 06:58:38;;;;;;;7.43;2.40;;;;;;;;;;4954198;29;20475;-51
2022/09/02 07:01:03;;;;;;;3.13;2.00;;;;;;;;;;4954477;29;20031;-43
2022/09/02 07:06:13;;;;;;;2.55;2.20;;;;;;;;;;4954459;29;20085;-45
2022/09/02 07:08:42;;;;;;;2.92;2.20;;;;;;;;;;4953997;29;20472;-45
2022/09/02 07:11:19;;;;;;;2.17;1.92;;;;;;;;;;4954306;29;20027;-42
2022/09/02 07:13:44;;;;;;;2.65;2.17;;;;;;;;;;4953950;29;20030;-46
2022/09/02 07:16:10;;;;;;;5.57;2.30;;;;;;;;;;4954310;29;20027;-48
2022/09/02 07:18:36;;;;;;;3.95;2.60;;;;;;;;;;4954049;29;20028;-47
2022/09/02 07:21:01;;;;;;;4.43;2.30;;;;;;;;;;4953907;29;20050;-46
2022/09/02 07:23:27;;;;;;;10.73;2.40;;;;;;;;;;4953946;29;20110;-45
2022/09/02 07:25:54;;;;;;;3.03;1.98;;;;;;;;;;4936769;29;20027;-44
2022/09/02 07:28:21;;;;;;;4.55;2.20;;;;;;;;;;4953736;29;20117;-44
2022/09/02 07:30:47;;;;;;;3.13;2.30;;;;;;;;;;4953844;29;20395;-41
2022/09/02 07:33:14;;;;;;;5.03;2.22;;;;;;;;;;4936811;29;20042;-45
2022/09/02 07:35:44;;;;;;;6.40;2.38;;;;;;;;;;4956259;28;20078;-44
2022/09/02 07:38:11;;;;;;;1.80;1.70;;;;;;;;;;4957798;29;20058;-41
2022/09/02 07:40:38;;;;;;;2.60;1.73;;;;;;;;;;4957426;29;20034;-41
2022/09/02 07:43:05;;;;;;;6.68;1.80;;;;;;;;;;4940530;29;20106;-40
2022/09/02 07:45:32;;;;;;;3.13;1.75;;;;;;;;;;4957588;29;20431;-45
2022/09/02 07:47:58;;;;;;;7.57;1.98;;;;;;;;;;4957251;29;20380;-47
2022/09/02 07:50:25;;;;;;;2.92;1.58;;;;;;;;;;4957230;29;20071;-50
2022/09/02 07:52:56;;;;;;;2.15;1.60;;;;;;;;;;4957182;29;20403;-44
2022/09/02 07:55:23;;;;;;;3.28;1.60;;;;;;;;;;4957228;29;20020;-43
2022/09/02 07:57:49;;;;;;;4.35;2.33;;;;;;;;;;4957089;29;20032;-44
2022/09/02 08:00:17;;;;;;;4.32;2.47;;;;;;;;;;4939955;29;20407;-46
2022/09/02 08:02:43;;;;;;;2.55;1.92;;;;;;;;;;4957050;29;20495;-43
2022/09/02 08:05:09;;;;;;;4.13;2.00;;;;;;;;;;4957064;29;20031;-45
2022/09/02 08:07:34;;;;;;;5.80;1.98;;;;;;;;;;4957207;29;20054;-46
2022/09/02 08:10:00;;;;;;;3.03;2.08;;;;;;;;;;4956992;29;20050;-44
2022/09/02 08:12:27;;;;;;;5.25;2.08;;;;;;;;;;4939846;29;20034;-46
2022/09/02 08:14:52;;;;;;;2.45;2.10;;;;;;;;;;4957127;29;20023;-48
2022/09/02 08:17:18;;;;;;;4.05;2.10;;;;;;;;;;4956912;29;20049;-41
2022/09/02 08:19:44;;;;;;;6.57;1.90;;;;;;;;;;4956874;29;20479;-40
2022/09/02 08:22:10;;;;;;;3.20;1.92;;;;;;;;;;4956700;29;20098;-45
2022/09/02 08:24:35;;;;;;;4.82;3.33;;;;;;;;;;4956764;29;20023;-41
2022/09/02 08:27:01;;;;;;;6.68;2.92;;;;;;;;;;4956680;29;20027;-44
2022/09/02 08:29:26;;;;;;;2.80;1.73;;;;;;;;;;4955681;29;20107;-43
2022/09/02 08:31:52;;;;;;;5.45;2.95;;;;;;;;;;4955069;29;20220;-42
2022/09/02 08:34:17;;;;;;;3.33;2.00;;;;;;;;;;4939233;29;20035;-43
2022/09/02 08:36:43;;;;;;;2.90;2.50;;;;;;;;;;4939293;29;20027;-40
2022/09/02 08:39:10;;;;;;;4.72;2.42;;;;;;;;;;4954726;29;20554;-43
2022/09/02 08:42:03;;;;;;;1.40;1.30;;;;;;;;;;4954647;29;20071;-44
2022/09/02 08:44:28;;;;;;;10.35;3.55;;;;;;;;;;4956139;29;20046;-48
2022/09/02 08:47:01;;;;;;;7.85;1.80;;;;;;;;;;4955824;28;20462;-44
2022/09/02 08:49:34;;;;;;;1.40;1.27;;;;;;;;;;4955577;29;20396;-45
2022/09/02 08:52:02;;;;;;;2.83;1.40;;;;;;;;;;4935728;29;20074;-43
2022/09/02 08:54:50;;;;;;;2.83;1.42;;;;;;;;;;4937416;29;20027;-45
2022/09/02 08:57:16;;;;;;;3.67;1.80;;;;;;;;;;4936269;29;20059;-46
2022/09/02 08:59:42;;;;;;;6.63;1.77;;;;;;;;;;4937256;29;20170;-44
2022/09/02 09:02:20;;;;;;;2.28;2.05;;;;;;;;;;4935916;29;20440;-48
2022/09/02 09:05:00;;;;;;;2.70;1.67;;;;;;;;;;4936832;29;20031;-46
2022/09/02 09:07:46;;;;;;;2.55;1.30;;;;;;;;;;4936713;29;20031;-44
2022/09/02 09:10:20;;;;;;;2.13;1.27;;;;;;;;;;4936844;29;20080;-40
2022/09/02 09:13:07;;;;;;;2.90;1.60;;;;;;;;;;4930365;29;20551;-41
2022/09/02 09:15:51;;;;;;;2.88;1.85;;;;;;;;;;4936921;29;20043;-43
2022/09/02 09:18:22;;;;;;;4.10;1.95;;;;;;;;;;4936400;29;20742;-46
2022/09/02 09:20:48;;;;;;;4.47;2.10;;;;;;;;;;4934802;29;20392;-41
2022/09/02 09:23:32;;;;;;;2.38;1.27;;;;;;;;;;4935233;29;20028;-44
2022/09/02 09:26:10;;;;;;;6.72;1.30;;;;;;;;;;4935201;29;20393;-45
2022/09/02 09:28:40;;;;;;;2.28;1.77;;;;;;;;;;4935074;29;20035;-40
2022/09/02 09:31:29;;;;;;;4.32;1.63;;;;;;;;;;4935109;29;20054;-46
2022/09/02 09:33:57;;;;;;;3.38;1.50;;;;;;;;;;4934643;29;20555;-46
2022/09/02 09:36:38;;;;;;;5.38;1.63;;;;;;;;;;4934971;29;20135;-40
2022/09/02 09:39:23;;;;;;;2.22;1.33;;;;;;;;;;4934797;29;20035;-42
2022/09/02 09:41:53;;;;;;;2.70;1.60;;;;;;;;;;4934131;29;20043;-44
2022/09/02 09:44:44;;;;;;;;;;;;;;;;;;4935133;29;20032;-45
2022/09/02 09:47:22;;;;;;;2.17;1.48;;;;;;;;;;4933266;29;19950;-41
2022/09/02 09:49:50;;;;;;;4.30;2.35;;;;;;;;;;4934400;29;20027;-44
2022/09/02 09:52:24;;;;;;;3.85;1.80;;;;;;;;;;4940796;29;20055;-44
2022/09/02 09:55:19;;;;;;;3.20;1.98;;;;;;;;;;4953650;29;20102;-49
2022/09/02 09:57:47;;;;;;;2.58;1.90;;;;;;;;;;4952916;28;20428;-45
2022/09/02 10:00:31;;;;;;;5.07;1.90;;;;;;;;;;4953408;29;20035;-40
2022/09/02 10:03:25;;;;;;;2.63;1.90;;;;;;;;;;4953461;29;20114;-46
2022/09/02 10:06:15;;;;;;;1.52;1.30;;;;;;;;;;4943521;29;20045;-41
2022/09/02 10:08:49;;;;;;;;;;;;;;;;;;4953721;29;20038;-41
2022/09/02 10:11:29;;;;;;;2.28;1.45;;;;;;;;;;4953283;29;19918;-42
2022/09/02 10:14:04;;;;;;;5.95;2.40;;;;;;;;;;4953307;29;20545;-40
2022/09/02 10:17:06;;;;;;;2.20;1.52;;;;;;;;;;4953434;29;20035;-40
2022/09/02 10:19:40;;;;;;;3.47;1.13;;;;;;;;;;4953492;29;20094;-39
2022/09/02 10:22:27;;;;;;;2.22;1.38;;;;;;;;;;4953143;29;20042;-43
2022/09/02 10:25:20;;;;;;;4.47;2.13;;;;;;;;;;4953121;29;20038;-40
2022/09/02 10:27:54;;;;;;;3.30;1.95;;;;;;;;;;4953173;29;20106;-40
2022/09/02 10:30:25;;;;;;;3.78;2.30;;;;;;;;;;4953018;29;20035;-40
2022/09/02 10:32:51;;;;;;;1.85;1.58;;;;;;;;;;4953217;29;20082;-42
2022/09/02 10:35:34;;;;;;;3.58;1.73;;;;;;;;;;4953208;29;20020;-39
2022/09/02 10:38:20;;;;;;;4.97;2.00;;;;;;;;;;4952846;29;20114;-40
2022/09/02 10:40:58;;;;;;;9.45;7.32;;;;;;;;;;4952799;29;20031;-44
2022/09/02 10:43:42;;;;;;;2.60;1.30;;;;;;;;;;4952935;29;20379;-40
2022/09/02 10:46:11;;;;;;;1.73;1.40;;;;;;;;;;4952548;29;20032;-43
2022/09/02 10:48:49;;;;;;;2.45;1.80;;;;;;;;;;4952499;29;20039;-40
2022/09/02 10:51:35;;;;;;;2.22;1.75;;;;;;;;;;4952323;29;20031;-39
2022/09/02 10:54:19;;;;;;;5.93;1.77;;;;;;;;;;4952181;29;20043;-41
2022/09/02 10:56:54;;;;;;;1.23;1.13;;;;;;;;;;4952916;29;20066;-39
2022/09/02 10:59:29;;;;;;;2.50;1.52;;;;;;;;;;4952615;29;20035;-40
2022/09/02 11:02:15;;;;;;;1.50;1.13;;;;;;;;;;4952750;29;20494;-42
2022/09/02 11:04:48;;;;;;;10.13;2.10;;;;;;;;;;4951932;29;20130;-40
2022/09/02 11:07:20;;;;;;;1.73;1.30;;;;;;;;;;4952487;29;20031;-44
2022/09/02 11:09:57;;;;;;;4.82;1.88;;;;;;;;;;4954912;28;20037;-41
2022/09/02 11:12:31;;;;;;;3.03;2.13;;;;;;;;;;4956531;29;20051;-45
2022/09/02 11:15:11;;;;;;;2.70;1.50;;;;;;;;;;4956310;29;20027;-42
2022/09/02 11:17:48;;;;;;;1.70;1.58;;;;;;;;;;4956313;29;20115;-41
2022/09/02 11:20:35;;;;;;;5.50;2.47;;;;;;;;;;4956104;29;20082;-39
2022/09/02 11:23:19;;;;;;;6.22;2.05;;;;;;;;;;4956539;29;20106;-41
2022/09/02 11:26:13;;;;;;;2.83;2.22;;;;;;;;;;4956391;29;20031;-42
2022/09/02 11:28:42;;;;;;;9.38;2.33;;;;;;;;;;4956153;29;20492;-45
2022/09/02 11:31:35;;;;;;;2.53;1.40;;;;;;;;;;4956308;29;20349;-41
2022/09/02 11:34:06;;;;;;;1.70;1.60;;;;;;;;;;4956112;29;20039;-42
2022/09/02 11:36:38;;;;;;;3.60;2.53;;;;;;;;;;4956438;29;20038;-44
2022/09/02 11:39:18;;;;;;;3.08;2.22;;;;;;;;;;4956200;29;20447;-41
2022/09/02 11:42:21;;;;;;;9.82;1.90;;;;;;;;;;4955638;29;20027;-45
2022/09/02 11:44:58;;;;;;;2.65;2.05;;;;;;;;;;4955912;29;20024;-41
2022/09/02 11:47:40;;;;;;;2.53;2.17;;;;;;;;;;4956171;29;20035;-46
2022/09/02 11:50:58;;;;;;;6.28;1.77;;;;;;;;;;4955925;29;20154;-47
2022/09/02 11:53:31;;;;;;;2.03;1.63;;;;;;;;;;4912507;29;20048;-40
2022/09/02 11:56:23;;;;;;;5.53;1.35;;;;;;;;;;4955873;29;20051;-45
2022/09/02 11:58:52;;;;;;;1.98;1.83;;;;;;;;;;4955578;29;20027;-49
2022/09/02 12:01:20;;;;;;;4.00;2.30;;;;;;;;;;4955711;29;20040;-44
2022/09/02 12:03:52;;;;;;;4.35;2.50;;;;;;;;;;4955342;29;20028;-42
2022/09/02 12:06:19;;;;;;;3.38;1.50;;;;;;;;;;4955854;29;20039;-41
2022/09/02 12:08:47;;;;;;;2.13;1.50;;;;;;;;;;4955313;29;20157;-44
2022/09/02 12:11:41;;;;;;;2.25;1.30;;;;;;;;;;4938317;29;20130;-48
2022/09/02 12:14:30;;;;;;;4.53;1.90;;;;;;;;;;4955264;29;20031;-40
2022/09/02 12:17:05;;;;;;;6.10;1.92;;;;;;;;;;4910250;29;20061;-43
2022/09/02 12:19:44;;;;;;;4.72;1.95;;;;;;;;;;4955506;29;20105;-42
2022/09/02 12:22:15;;;;;;;5.43;2.17;;;;;;;;;;4954883;28;20030;-42
2022/09/02 12:24:55;;;;;;;2.92;2.50;;;;;;;;;;4955080;29;20074;-40
2022/09/02 12:27:32;;;;;;;3.73;2.23;;;;;;;;;;4955263;29;20031;-46
2022/09/02 12:29:59;;;;;;;4.88;2.25;;;;;;;;;;4955322;29;20039;-44
2022/09/02 12:33:08;;;;;;;7.55;2.42;;;;;;;;;;4955175;29;20026;-50
2022/09/02 12:35:39;;;;;;;3.60;2.10;;;;;;;;;;4858162;29;20041;-42
2022/09/02 12:38:10;;;;;;;2.65;1.55;;;;;;;;;;4943764;29;20043;-44
2022/09/02 12:41:03;;;;;;;3.55;2.03;;;;;;;;;;4954858;29;20078;-44
2022/09/02 12:43:56;;;;;;;3.92;2.30;;;;;;;;;;4955069;29;20081;-43
2022/09/02 12:46:45;;;;;;;5.53;1.80;;;;;;;;;;4955303;29;20078;-44
2022/09/02 12:49:56;;;;;;;4.22;2.00;;;;;;;;;;4954633;29;20106;-44
2022/09/02 12:52:34;;;;;;;4.80;2.33;;;;;;;;;;4917933;29;20062;-43
2022/09/02 12:55:09;;;;;;;4.00;1.98;;;;;;;;;;4954921;29;20106;-44
2022/09/02 12:57:43;;;;;;;2.13;1.73;;;;;;;;;;4937324;29;20554;-42
2022/09/02 13:00:29;;;;;;;3.85;1.70;;;;;;;;;;4954788;29;20034;-40
2022/09/02 13:03:28;;;;;;;4.03;1.75;;;;;;;;;;4954832;29;20180;-39
2022/09/02 13:05:59;;;;;;;2.13;1.65;;;;;;;;;;4954853;29;20082;-40
2022/09/02 13:08:43;;;;;;;4.28;1.63;;;;;;;;;;4954245;29;20046;-39
2022/09/02 13:11:27;;;;;;;4.07;1.63;;;;;;;;;;4954497;29;20023;-41
2022/09/02 13:14:04;;;;;;;3.55;2.20;;;;;;;;;;4954191;29;20078;-46
2022/09/02 13:16:48;;;;;;;3.38;1.80;;;;;;;;;;4954246;29;20037;-39
2022/09/02 13:19:27;;;;;;;4.05;2.50;;;;;;;;;;4954176;29;20035;-42
2022/09/02 13:22:12;;;;;;;3.07;2.00;;;;;;;;;;4954374;29;20038;-40
2022/09/02 13:24:59;;;;;;;2.10;1.60;;;;;;;;;;4954326;29;20606;-44
2022/09/02 13:27:46;;;;;;;7.20;2.13;;;;;;;;;;4954041;29;20492;-40
2022/09/02 13:30:18;;;;;;;15.10;5.20;;;;;;;;;;4953876;29;20039;-41
2022/09/02 13:32:55;;;;;;;3.55;2.13;;;;;;;;;;4952886;28;20033;-41
2022/09/02 13:35:25;;;;;;;4.95;2.72;;;;;;;;;;4953839;29;20082;-47
2022/09/02 13:38:01;;;;;;;3.65;2.72;;;;;;;;;;4953782;29;20074;-44
2022/09/02 13:40:35;;;;;;;10.00;2.30;;;;;;;;;;4954080;29;20114;-42
2022/09/02 13:43:14;;;;;;;3.55;1.95;;;;;;;;;;4953679;29;20604;-40
2022/09/02 13:45:40;;;;;;;3.80;1.90;;;;;;;;;;4953815;29;20566;-43
2022/09/02 13:48:09;;;;;;;8.07;2.95;;;;;;;;;;4953888;29;20684;-39
2022/09/02 13:50:34;;;;;;;3.15;2.13;;;;;;;;;;4953608;29;20490;-44
2022/09/02 13:53:35;;;;;;;5.72;1.67;;;;;;;;;;5068711;28;20138;-45
2022/09/02 13:56:04;;;;;;;4.78;1.77;;;;;;;;;;5068527;28;20090;-45
2022/09/02 13:58:29;;;;;;;2.38;1.70;;;;;;;;;;5068530;28;20039;-46
2022/09/02 14:01:31;;;;;;;3.80;2.88;;;;;;;;;;5068145;28;20033;-46
2022/09/02 14:04:00;;;;;;;8.35;2.05;;;;;;;;;;5068249;28;20035;-47
2022/09/02 14:06:36;;;;;;;4.40;2.38;;;;;;;;;;5067970;28;20476;-42
2022/09/02 14:09:05;;;;;;;5.28;1.48;;;;;;;;;;5067872;28;20139;-42
2022/09/02 14:11:40;;;;;;;5.90;2.20;;;;;;;;;;5049711;28;20032;-45
2022/09/02 14:14:06;;;;;;;5.72;2.00;;;;;;;;;;5067752;28;20136;-46
2022/09/02 14:16:34;;;;;;;7.70;2.55;;;;;;;;;;5067977;28;20412;-49
2022/09/02 14:19:03;;;;;;;5.50;2.20;;;;;;;;;;5067536;28;20492;-45
2022/09/02 14:21:28;;;;;;;2.00;1.80;;;;;;;;;;5067900;28;20090;-45
2022/09/02 14:23:54;;;;;;;5.65;2.35;;;;;;;;;;5067531;28;20472;-44
2022/09/02 14:26:47;;;;;;;2.67;1.90;;;;;;;;;;5067384;28;20028;-49
2022/09/02 14:29:15;;;;;;;2.28;1.63;;;;;;;;;;5066561;28;20095;-48
2022/09/02 14:31:41;;;;;;;3.97;1.73;;;;;;;;;;5067619;28;20120;-44
2022/09/02 14:34:36;;;;;;;2.80;1.73;;;;;;;;;;5067397;28;20451;-44
2022/09/02 14:37:31;;;;;;;2.38;2.15;;;;;;;;;;5067184;28;20032;-45
2022/09/02 14:40:09;;;;;;;5.15;2.05;;;;;;;;;;5067673;28;20029;-43
2022/09/02 14:42:47;;;;;;;11.57;2.60;;;;;;;;;;5067566;28;20044;-44
2022/09/02 14:45:13;;;;;;;2.40;1.40;;;;;;;;;;5067175;28;20029;-42
2022/09/02 14:47:40;;;;;;;1.83;1.60;;;;;;;;;;5067297;28;20430;-42
2022/09/02 14:50:11;;;;;;;4.22;1.77;;;;;;;;;;5067138;28;20056;-43
2022/09/02 14:52:45;;;;;;;9.18;1.92;;;;;;;;;;5066697;28;20462;-42
2022/09/02 14:55:52;;;;;;;3.22;1.83;;;;;;;;;;5067260;28;20028;-44
2022/09/02 14:58:19;;;;;;;1.23;1.15;;;;;;;;;;5067178;28;20373;-46
2022/09/02 15:00:50;;;;;;;5.22;2.20;;;;;;;;;;5067082;28;20041;-45
2022/09/02 15:03:17;;;;;;;2.97;1.80;;;;;;;;;;5060217;28;20025;-45
2022/09/02 15:05:43;;;;;;;2.65;1.58;;;;;;;;;;5053478;28;20494;-43
2022/09/02 15:08:09;;;;;;;3.42;2.42;;;;;;;;;;5053749;28;20028;-43
2022/09/02 15:10:38;;;;;;;7.93;2.97;;;;;;;;;;5053761;28;20029;-45
2022/09/02 15:13:11;;;;;;;1.40;1.30;;;;;;;;;;5053343;28;20075;-47